createdAt,value
2019-02-25T00:02:14.108Z,90.10
2019-02-25T00:04:44.920Z,90.00
2019-02-25T00:07:15.500Z,89.90
2019-02-25T00:09:46.186Z,89.60
2019-02-25T00:12:16.984Z,90.10
2019-02-25T00:14:47.604Z,90.00
2019-02-25T00:17:18.149Z,89.50
2019-02-25T00:19:48.776Z,89.80
2019-02-25T00:22:19.362Z,90.00
2019-02-25T00:24:50.217Z,89.60
2019-02-25T00:27:20.902Z,90.00
2019-02-25T00:29:51.570Z,89.00
2019-02-25T00:32:22.166Z,88.70
2019-02-25T00:34:52.761Z,88.60
2019-02-25T00:37:23.390Z,88.70
2019-02-25T00:39:54.038Z,88.90
2019-02-25T00:42:24.642Z,88.70
2019-02-25T00:44:57.523Z,89.10
2019-02-25T00:47:29.499Z,89.30
2019-02-25T00:50:00.283Z,89.90
2019-02-25T00:52:31.093Z,89.30
2019-02-25T00:55:01.754Z,89.50
2019-02-25T00:57:32.318Z,90.10
2019-02-25T01:00:02.864Z,89.60
2019-02-25T01:02:33.957Z,90.00
2019-02-25T01:05:05.002Z,90.20
2019-02-25T01:07:35.559Z,90.00
2019-02-25T01:10:07.176Z,90.10
2019-02-25T01:12:37.776Z,90.00
2019-02-25T01:15:08.607Z,90.20
2019-02-25T01:17:39.229Z,90.20
2019-02-25T01:20:09.876Z,90.00
2019-02-25T01:22:40.432Z,90.10
2019-02-25T01:25:11.320Z,90.20
2019-02-25T01:27:42.031Z,90.20
2019-02-25T01:30:13.471Z,90.20
2019-02-25T01:32:44.205Z,90.10
2019-02-25T01:35:17.998Z,90.10
2019-02-25T01:37:48.895Z,90.10
2019-02-25T01:40:19.773Z,90.00
2019-02-25T01:42:50.788Z,89.80
2019-02-25T01:45:21.485Z,89.70
2019-02-25T01:47:52.242Z,89.70
2019-02-25T01:50:22.994Z,89.80
2019-02-25T01:52:53.619Z,90.00
2019-02-25T01:55:24.488Z,90.00
2019-02-25T01:57:55.114Z,90.00
2019-02-25T02:00:25.891Z,89.80
2019-02-25T02:02:56.581Z,89.70
2019-02-25T02:05:27.414Z,89.80
2019-02-25T02:07:58.079Z,89.80
2019-02-25T02:10:28.812Z,90.00
2019-02-25T02:12:59.542Z,90.00
2019-02-25T02:15:30.196Z,90.10
2019-02-25T02:18:00.967Z,90.10
2019-02-25T02:20:31.560Z,90.00
2019-02-25T02:23:02.196Z,90.00
2019-02-25T02:25:32.834Z,90.00
2019-02-25T02:28:03.364Z,90.00
2019-02-25T02:30:34.045Z,90.00
2019-02-25T02:33:04.633Z,89.90
2019-02-25T02:35:35.310Z,89.90
2019-02-25T02:38:06.089Z,90.00
2019-02-25T02:40:36.791Z,89.70
2019-02-25T02:43:07.620Z,89.70
2019-02-25T02:45:51.393Z,89.90
2019-02-25T02:48:38.743Z,89.80
2019-02-25T02:51:09.365Z,89.90
2019-02-25T02:53:40.024Z,89.90
2019-02-25T02:56:10.780Z,89.80
2019-02-25T02:58:41.374Z,89.50
2019-02-25T03:01:12.016Z,89.40
2019-02-25T03:03:42.662Z,89.40
2019-02-25T03:06:13.321Z,89.40
2019-02-25T03:08:44.102Z,89.20
2019-02-25T03:11:14.745Z,89.20
2019-02-25T03:13:45.480Z,89.30
2019-02-25T03:16:16.184Z,89.40
2019-02-25T03:18:46.784Z,89.60
2019-02-25T03:21:17.674Z,89.50
2019-02-25T03:23:48.285Z,89.20
2019-02-25T03:26:18.968Z,89.40
2019-02-25T03:28:49.547Z,89.60
2019-02-25T03:31:20.294Z,89.60
2019-02-25T03:33:50.941Z,89.60
2019-02-25T03:36:21.796Z,89.80
2019-02-25T03:38:52.419Z,89.60
2019-02-25T03:41:23.099Z,89.70
2019-02-25T03:43:53.836Z,89.60
2019-02-25T03:46:24.536Z,89.50
2019-02-25T03:48:55.211Z,89.50
2019-02-25T03:51:25.776Z,89.60
2019-02-25T03:53:56.405Z,89.10
2019-02-25T03:56:27.040Z,89.10
2019-02-25T03:58:57.815Z,89.40
2019-02-25T04:01:28.500Z,88.80
2019-02-25T04:03:59.151Z,89.00
2019-02-25T04:06:29.759Z,88.50
2019-02-25T04:09:00.558Z,88.50
2019-02-25T04:11:31.395Z,88.60
2019-02-25T04:14:02.001Z,88.80
2019-02-25T04:16:32.719Z,88.80
2019-02-25T04:19:03.400Z,88.60
2019-02-25T04:21:34.578Z,88.60
2019-02-25T04:24:06.637Z,88.50
2019-02-25T04:26:37.280Z,88.40
2019-02-25T04:29:07.971Z,88.30
2019-02-25T04:31:38.501Z,88.50
2019-02-25T04:34:11.020Z,88.50
2019-02-25T04:36:48.196Z,88.50
2019-02-25T04:39:22.545Z,88.80
2019-02-25T04:41:53.181Z,89.10
2019-02-25T04:44:23.746Z,89.10
2019-02-25T04:46:54.520Z,89.10
2019-02-25T04:49:25.113Z,89.70
2019-02-25T04:51:56.156Z,89.00
2019-02-25T04:54:26.922Z,88.90
2019-02-25T04:56:57.626Z,88.90
2019-02-25T04:59:28.375Z,88.50
2019-02-25T05:01:59.181Z,88.10
2019-02-25T05:04:29.836Z,88.30
2019-02-25T05:07:01.029Z,88.00
2019-02-25T05:09:31.565Z,88.00
2019-02-25T05:12:02.327Z,88.10
2019-02-25T05:14:33.144Z,88.40
2019-02-25T05:17:03.839Z,88.40
2019-02-25T05:19:35.109Z,88.20
2019-02-25T05:22:05.903Z,88.00
2019-02-25T05:24:36.540Z,87.80
2019-02-25T05:27:07.085Z,87.80
2019-02-25T05:29:37.588Z,87.80
2019-02-25T05:32:08.259Z,87.60
2019-02-25T05:34:38.789Z,87.80
2019-02-25T05:37:10.380Z,87.20
2019-02-25T05:39:40.903Z,87.20
2019-02-25T05:42:11.684Z,86.80
2019-02-25T05:44:42.420Z,86.20
2019-02-25T05:47:13.100Z,88.70
2019-02-25T05:49:43.713Z,88.90
2019-02-25T05:52:14.408Z,88.30
2019-02-25T05:54:45.093Z,87.20
2019-02-25T05:57:15.786Z,86.90
2019-02-25T05:59:46.493Z,86.70
2019-02-25T06:02:17.317Z,85.80
2019-02-25T06:04:47.845Z,85.70
2019-02-25T06:07:18.516Z,84.80
2019-02-25T06:09:49.107Z,85.00
2019-02-25T06:12:19.677Z,82.70
2019-02-25T06:14:50.276Z,78.80
2019-02-25T06:17:21.256Z,71.90
2019-02-25T06:19:52.040Z,68.30
2019-02-25T06:22:22.582Z,62.50
2019-02-25T06:24:53.383Z,59.50
2019-02-25T06:27:30.494Z,57.70
2019-02-25T06:29:57.111Z,55.70
2019-02-25T06:32:27.767Z,56.00
2019-02-25T06:34:58.810Z,54.60
2019-02-25T06:37:29.885Z,55.90
2019-02-25T06:40:00.448Z,58.40
2019-02-25T06:42:30.977Z,59.60
2019-02-25T06:45:01.460Z,56.30
2019-02-25T06:47:32.052Z,52.20
2019-02-25T06:50:02.674Z,50.50
2019-02-25T06:52:33.269Z,48.70
2019-02-25T06:55:03.864Z,53.20
2019-02-25T06:57:34.428Z,56.40
2019-02-25T07:00:06.345Z,59.50
2019-02-25T07:02:37.237Z,61.60
2019-02-25T07:05:26.824Z,63.30
2019-02-25T07:08:01.312Z,64.60
2019-02-25T07:11:06.056Z,64.10
2019-02-25T07:13:54.441Z,66.10
2019-02-25T07:16:42.765Z,65.50
2019-02-25T07:19:23.521Z,64.80
2019-02-25T07:22:16.453Z,63.60
2019-02-25T07:25:07.804Z,63.90
2019-02-25T07:27:57.259Z,63.00
2019-02-25T07:30:42.043Z,63.20
2019-02-25T07:33:27.923Z,65.10
2019-02-25T07:36:32.608Z,64.80
2019-02-25T07:39:20.544Z,63.40
2019-02-25T07:42:10.609Z,64.10
2019-02-25T07:44:47.185Z,63.30
2019-02-25T07:47:35.004Z,64.10
2019-02-25T07:50:21.389Z,63.80
2019-02-25T07:53:09.688Z,65.30
2019-02-25T07:56:02.428Z,67.10
2019-02-25T07:58:45.852Z,65.70
2019-02-25T08:01:38.052Z,65.40
2019-02-25T08:04:36.575Z,63.30
2019-02-25T08:07:38.256Z,62.30
2019-02-25T08:10:31.513Z,61.20
2019-02-25T08:13:20.111Z,61.50
2019-02-25T08:16:03.692Z,59.60
2019-02-25T08:18:51.752Z,59.90
2019-02-25T08:21:44.501Z,59.10
2019-02-25T08:24:36.908Z,59.50
2019-02-25T08:27:26.698Z,59.30
2019-02-25T08:30:16.352Z,58.10
2019-02-25T08:33:06.029Z,57.30
2019-02-25T08:36:37.555Z,57.90
2019-02-25T08:39:17.477Z,56.80
2019-02-25T08:42:08.153Z,57.10
2019-02-25T08:44:57.824Z,56.60
2019-02-25T08:47:39.729Z,57.30
2019-02-25T08:50:11.445Z,58.90
2019-02-25T08:52:42.474Z,58.30
2019-02-25T08:55:13.290Z,59.80
2019-02-25T08:57:44.104Z,59.80
2019-02-25T09:00:15.398Z,60.50
2019-02-25T09:02:46.220Z,57.80
2019-02-25T09:05:17.058Z,58.90
2019-02-25T09:07:48.876Z,59.00
2019-02-25T09:10:19.719Z,59.00
2019-02-25T09:12:50.549Z,58.80
2019-02-25T09:15:21.399Z,58.80
2019-02-25T09:18:10.622Z,60.40
2019-02-25T09:20:41.486Z,60.00
2019-02-25T09:23:12.328Z,60.80
2019-02-25T09:25:43.193Z,61.60
2019-02-25T09:28:14.024Z,62.00
2019-02-25T09:30:44.860Z,61.60
2019-02-25T09:33:15.695Z,60.40
2019-02-25T09:35:46.685Z,60.60
2019-02-25T09:38:17.725Z,61.30
2019-02-25T09:40:48.548Z,61.50
2019-02-25T09:43:19.364Z,61.60
2019-02-25T09:45:50.189Z,60.00
2019-02-25T09:48:21.010Z,62.00
2019-02-25T09:50:51.835Z,61.30
2019-02-25T09:53:22.955Z,61.30
2019-02-25T09:55:53.778Z,61.50
2019-02-25T09:58:24.821Z,62.40
2019-02-25T10:00:55.652Z,61.80
2019-02-25T10:03:26.468Z,63.00
2019-02-25T10:05:57.342Z,62.40
2019-02-25T10:08:28.165Z,62.70
2019-02-25T10:10:59.013Z,61.70
2019-02-25T10:13:29.828Z,61.50
2019-02-25T10:16:00.648Z,61.40
2019-02-25T10:18:31.473Z,61.70
2019-02-25T10:21:02.317Z,63.10
2019-02-25T10:23:33.133Z,62.10
2019-02-25T10:26:03.998Z,62.30
2019-02-25T10:28:34.796Z,62.70
2019-02-25T10:31:05.616Z,61.90
2019-02-25T10:33:36.424Z,64.20
2019-02-25T10:36:07.273Z,62.10
2019-02-25T10:38:38.098Z,62.60
2019-02-25T10:41:09.025Z,62.40
2019-02-25T10:43:39.914Z,62.20
2019-02-25T10:46:12.974Z,62.90
2019-02-25T10:48:43.384Z,61.90
2019-02-25T10:51:14.220Z,62.50
2019-02-25T10:53:45.696Z,62.60
2019-02-25T10:56:25.929Z,63.20
2019-02-25T10:58:57.712Z,63.20
2019-02-25T11:01:29.395Z,62.90
2019-02-25T11:04:00.197Z,63.00
2019-02-25T11:06:34.583Z,62.10
2019-02-25T11:09:20.906Z,62.90
2019-02-25T11:11:52.709Z,62.90
2019-02-25T11:14:24.468Z,62.60
2019-02-25T11:16:55.726Z,62.50
2019-02-25T11:19:28.200Z,62.20
2019-02-25T11:21:59.090Z,63.20
2019-02-25T11:24:29.957Z,63.00
2019-02-25T11:27:01.449Z,62.90
2019-02-25T11:29:33.300Z,62.90
2019-02-25T11:32:04.175Z,62.80
2019-02-25T11:34:35.757Z,62.90
2019-02-25T11:37:07.437Z,63.80
2019-02-25T11:39:38.256Z,63.50
2019-02-25T11:42:10.826Z,63.00
2019-02-25T11:44:41.830Z,62.60
2019-02-25T11:47:13.439Z,63.20
2019-02-25T11:49:44.264Z,63.40
2019-02-25T11:52:15.188Z,62.80
2019-02-25T11:54:45.993Z,63.20
2019-02-25T11:57:16.821Z,63.30
2019-02-25T11:59:47.618Z,63.80
2019-02-25T12:02:25.191Z,63.40
2019-02-25T12:04:50.915Z,63.40
2019-02-25T12:07:21.746Z,63.20
2019-02-25T12:09:52.568Z,62.90
2019-02-25T12:12:23.404Z,63.40
2019-02-25T12:14:55.235Z,63.90
2019-02-25T12:17:26.069Z,64.10
2019-02-25T12:19:56.884Z,64.30
2019-02-25T12:22:28.725Z,64.80
2019-02-25T12:24:59.524Z,63.40
2019-02-25T12:27:30.361Z,64.10
2019-02-25T12:30:01.178Z,64.20
2019-02-25T12:32:32.102Z,63.90
2019-02-25T12:35:03.299Z,64.30
2019-02-25T12:37:34.125Z,64.10
2019-02-25T12:40:05.473Z,63.80
2019-02-25T12:42:36.317Z,64.60
2019-02-25T12:45:07.640Z,64.60
2019-02-25T12:47:38.464Z,63.90
2019-02-25T12:50:10.352Z,64.20
2019-02-25T12:52:41.180Z,64.30
2019-02-25T12:55:12.538Z,64.40
2019-02-25T12:57:43.778Z,64.10
2019-02-25T13:00:15.330Z,64.60
2019-02-25T13:02:47.166Z,64.60
2019-02-25T13:05:18.111Z,64.70
2019-02-25T13:07:48.916Z,64.30
2019-02-25T13:10:19.956Z,65.00
2019-02-25T13:12:51.739Z,64.70
2019-02-25T13:15:22.896Z,64.70
2019-02-25T13:17:53.721Z,66.30
2019-02-25T13:20:24.525Z,65.10
2019-02-25T13:22:55.350Z,64.60
2019-02-25T13:25:26.182Z,65.10
2019-02-25T13:27:58.748Z,65.20
2019-02-25T13:30:29.577Z,65.20
2019-02-25T13:33:00.416Z,65.60
2019-02-25T13:35:31.457Z,65.80
2019-02-25T13:38:02.604Z,65.70
2019-02-25T13:40:33.758Z,65.50
2019-02-25T13:43:04.580Z,65.70
2019-02-25T13:45:35.411Z,66.10
2019-02-25T13:48:06.783Z,65.80
2019-02-25T13:50:37.609Z,65.70
2019-02-25T13:53:08.475Z,66.70
2019-02-25T13:55:39.389Z,65.90
2019-02-25T13:58:10.236Z,65.90
2019-02-25T14:00:41.357Z,66.30
2019-02-25T14:03:12.521Z,66.60
2019-02-25T14:05:43.542Z,66.60
2019-02-25T14:08:14.852Z,66.50
2019-02-25T14:10:46.108Z,66.60
2019-02-25T14:13:17.139Z,66.70
2019-02-25T14:15:48.158Z,66.90
2019-02-25T14:18:19.282Z,67.10
2019-02-25T14:20:55.108Z,67.40
2019-02-25T14:23:26.148Z,67.10
2019-02-25T14:25:58.807Z,66.50
2019-02-25T14:28:30.302Z,66.90
2019-02-25T14:31:01.144Z,67.00
2019-02-25T14:33:35.641Z,67.10
2019-02-25T14:36:05.923Z,67.00
2019-02-25T14:38:37.287Z,66.90
2019-02-25T14:41:09.446Z,67.70
2019-02-25T14:43:46.209Z,67.40
2019-02-25T14:46:14.545Z,67.80
2019-02-25T14:48:46.615Z,67.50
2019-02-25T14:51:18.429Z,67.80
2019-02-25T14:53:50.035Z,67.80
2019-02-25T14:56:21.704Z,68.00
2019-02-25T14:58:52.963Z,68.00
2019-02-25T15:01:25.672Z,68.60
2019-02-25T15:03:58.054Z,68.40
2019-02-25T15:06:30.395Z,68.50
2019-02-25T15:09:01.810Z,68.00
2019-02-25T15:11:35.395Z,68.70
2019-02-25T15:14:08.095Z,68.80
2019-02-25T15:16:39.140Z,68.90
2019-02-25T15:19:09.988Z,69.10
2019-02-25T15:21:43.022Z,70.00
2019-02-25T15:24:16.706Z,69.80
2019-02-25T15:26:47.961Z,69.80
2019-02-25T15:29:18.909Z,70.40
2019-02-25T15:31:50.579Z,70.30
2019-02-25T15:34:22.352Z,70.30
2019-02-25T15:36:53.219Z,70.70
2019-02-25T15:39:26.010Z,71.60
2019-02-25T15:41:56.932Z,71.80
2019-02-25T15:44:27.899Z,71.70
2019-02-25T15:47:00.240Z,72.60
2019-02-25T15:49:31.964Z,72.60
2019-02-25T15:52:02.883Z,72.60
2019-02-25T15:54:35.093Z,72.80
2019-02-25T15:57:06.170Z,73.20
2019-02-25T15:59:38.133Z,74.20
2019-02-25T16:02:13.494Z,73.10
2019-02-25T16:04:42.733Z,73.30
2019-02-25T16:07:13.739Z,74.10
2019-02-25T16:09:46.088Z,73.40
2019-02-25T16:12:17.902Z,74.60
2019-02-25T16:14:50.580Z,73.10
2019-02-25T16:17:22.275Z,73.90
2019-02-25T16:19:54.539Z,73.50
2019-02-25T16:22:26.217Z,73.60
2019-02-25T16:24:59.027Z,74.50
2019-02-25T16:27:30.333Z,74.50
2019-02-25T16:30:02.915Z,73.70
2019-02-25T16:32:35.323Z,74.00
2019-02-25T16:35:07.247Z,73.60
2019-02-25T16:37:38.399Z,74.20
2019-02-25T16:40:11.092Z,74.50
2019-02-25T16:42:41.905Z,74.20
2019-02-25T16:45:15.088Z,74.50
2019-02-25T16:47:46.347Z,73.60
2019-02-25T16:50:18.709Z,74.40
2019-02-25T16:52:50.144Z,74.30
2019-02-25T16:55:22.671Z,74.40
2019-02-25T16:57:53.937Z,74.70
2019-02-25T17:00:25.262Z,74.60
2019-02-25T17:02:59.323Z,74.50
2019-02-25T17:05:30.024Z,74.70
2019-02-25T17:08:02.998Z,74.80
2019-02-25T17:10:33.864Z,75.20
2019-02-25T17:13:06.391Z,74.60
2019-02-25T17:15:38.247Z,75.30
2019-02-25T17:18:09.262Z,74.70
2019-02-25T17:20:40.135Z,75.20
2019-02-25T17:23:10.943Z,75.50
2019-02-25T17:25:43.591Z,75.20
2019-02-25T17:28:17.475Z,75.70
2019-02-25T17:30:49.555Z,75.50
2019-02-25T17:33:20.123Z,75.40
2019-02-25T17:35:52.118Z,75.30
2019-02-25T17:38:24.622Z,76.00
2019-02-25T17:40:55.973Z,76.30
2019-02-25T17:43:26.788Z,76.50
2019-02-25T17:45:58.234Z,76.40
2019-02-25T17:48:30.170Z,76.50
2019-02-25T17:51:01.687Z,76.20
2019-02-25T17:53:33.448Z,76.50
2019-02-25T17:56:04.500Z,76.40
2019-02-25T17:58:36.059Z,76.60
2019-02-25T18:01:09.182Z,76.60
2019-02-25T18:03:41.651Z,76.50
2019-02-25T18:06:12.434Z,76.60
2019-02-25T18:08:44.391Z,76.70
2019-02-25T18:11:15.731Z,76.50
2019-02-25T18:13:49.018Z,76.80
2019-02-25T18:16:20.347Z,76.90
2019-02-25T18:18:52.488Z,77.30
2019-02-25T18:21:28.274Z,77.10
2019-02-25T18:23:56.873Z,76.90
2019-02-25T18:26:28.614Z,77.10
2019-02-25T18:29:00.357Z,76.90
2019-02-25T18:31:31.492Z,77.20
2019-02-25T18:34:02.344Z,77.10
2019-02-25T18:36:33.375Z,77.60
2019-02-25T18:39:05.849Z,77.30
2019-02-25T18:41:38.285Z,77.20
2019-02-25T18:44:10.907Z,77.20
2019-02-25T18:46:43.602Z,77.60
2019-02-25T18:49:14.246Z,77.20
2019-02-25T18:51:45.208Z,77.10
2019-02-25T18:54:17.009Z,77.00
2019-02-25T18:56:48.468Z,77.70
2019-02-25T18:59:20.330Z,78.00
2019-02-25T19:01:53.607Z,77.60
2019-02-25T19:04:24.304Z,77.10
2019-02-25T19:06:56.613Z,76.90
2019-02-25T19:09:27.711Z,76.90
2019-02-25T19:11:58.861Z,76.70
2019-02-25T19:14:31.160Z,80.80
2019-02-25T19:17:04.261Z,79.60
2019-02-25T19:19:38.128Z,79.50
2019-02-25T19:22:08.581Z,78.90
2019-02-25T19:24:42.289Z,79.20
2019-02-25T19:27:12.961Z,78.00
2019-02-25T19:29:45.549Z,78.40
2019-02-25T19:32:16.345Z,78.10
2019-02-25T19:34:47.364Z,77.80
2019-02-25T19:37:18.369Z,77.50
2019-02-25T19:39:50.643Z,78.60
2019-02-25T19:42:22.889Z,77.60
2019-02-25T19:44:54.196Z,77.20
2019-02-25T19:47:27.442Z,77.30
2019-02-25T19:49:59.572Z,77.00
2019-02-25T19:52:34.745Z,77.50
2019-02-25T19:55:05.623Z,77.40
2019-02-25T19:57:36.243Z,77.70
2019-02-25T20:00:11.631Z,77.70
2019-02-25T20:02:42.556Z,77.00
2019-02-25T20:05:14.231Z,77.10
2019-02-25T20:07:46.737Z,77.20
2019-02-25T20:10:17.651Z,76.90
2019-02-25T20:12:50.970Z,78.70
2019-02-25T20:15:25.017Z,79.30
2019-02-25T20:17:55.270Z,78.80
2019-02-25T20:21:07.816Z,79.40
2019-02-25T20:23:17.225Z,78.50
2019-02-25T20:25:51.127Z,79.20
2019-02-25T20:28:26.674Z,78.50
2019-02-25T20:30:58.874Z,76.90
2019-02-25T20:33:32.338Z,77.80
2019-02-25T20:36:03.359Z,79.10
2019-02-25T20:38:37.267Z,80.10
2019-02-25T20:41:08.928Z,80.50
2019-02-25T20:43:40.835Z,80.90
2019-02-25T20:46:11.859Z,81.50
2019-02-25T20:48:46.491Z,81.50
2019-02-25T20:51:16.553Z,82.70
2019-02-25T20:53:50.701Z,84.10
2019-02-25T20:56:33.152Z,84.60
2019-02-25T20:59:07.923Z,86.70
2019-02-25T21:01:44.644Z,85.40
2019-02-25T21:04:20.095Z,83.80
2019-02-25T21:06:54.412Z,83.20
2019-02-25T21:09:25.692Z,83.00
2019-02-25T21:12:01.262Z,82.30
2019-02-25T21:14:35.669Z,82.00
2019-02-25T21:17:12.881Z,81.40
2019-02-25T21:19:44.859Z,81.70
2019-02-25T21:22:23.165Z,81.60
2019-02-25T21:24:55.753Z,81.40
2019-02-25T21:27:28.325Z,80.70
2019-02-25T21:29:59.055Z,80.90
2019-02-25T21:32:30.423Z,80.80
2019-02-25T21:35:11.833Z,80.60
2019-02-25T21:37:38.141Z,80.80
2019-02-25T21:40:14.880Z,80.30
2019-02-25T21:42:46.890Z,81.50
2019-02-25T21:45:20.300Z,80.60
2019-02-25T21:47:54.036Z,80.20
2019-02-25T21:50:26.265Z,80.50
2019-02-25T21:52:56.716Z,79.60
2019-02-25T21:55:28.542Z,79.60
2019-02-25T21:58:02.510Z,79.90
2019-02-25T22:00:35.123Z,80.00
2019-02-25T22:03:08.296Z,80.20
2019-02-25T22:05:37.528Z,79.90
2019-02-25T22:08:08.371Z,79.90
2019-02-25T22:10:41.412Z,80.10
2019-02-25T22:13:13.507Z,80.10
2019-02-25T22:15:45.256Z,80.10
2019-02-25T22:18:17.357Z,79.70
2019-02-25T22:20:49.370Z,80.20
2019-02-25T22:23:22.209Z,79.80
2019-02-25T22:25:53.252Z,79.80
2019-02-25T22:28:24.075Z,79.80
2019-02-25T22:30:54.957Z,79.80
2019-02-25T22:33:27.882Z,79.70
2019-02-25T22:35:58.293Z,79.80
2019-02-25T22:38:29.233Z,79.80
2019-02-25T22:41:02.163Z,79.70
2019-02-25T22:43:32.692Z,79.80
2019-02-25T22:46:05.417Z,79.70
2019-02-25T22:48:37.586Z,79.80
2019-02-25T22:51:08.493Z,79.70
2019-02-25T22:53:39.328Z,80.60
2019-02-25T22:56:13.337Z,79.60
2019-02-25T22:58:43.036Z,79.60
2019-02-25T23:01:18.087Z,79.60
2019-02-25T23:03:50.548Z,79.70
2019-02-25T23:06:23.141Z,79.60
2019-02-25T23:08:55.570Z,79.70
2019-02-25T23:11:26.180Z,79.60
2019-02-25T23:13:57.480Z,79.80
2019-02-25T23:16:28.311Z,80.40
2019-02-25T23:18:59.215Z,80.70
2019-02-25T23:21:31.361Z,81.50
2019-02-25T23:24:03.045Z,81.80
2019-02-25T23:26:35.056Z,82.50
2019-02-25T23:29:05.904Z,82.70
2019-02-25T23:31:36.729Z,83.00
2019-02-25T23:34:10.384Z,83.30
2019-02-25T23:36:44.825Z,83.20
2019-02-25T23:39:17.087Z,83.40
2019-02-25T23:41:48.691Z,83.50
2019-02-25T23:44:22.059Z,83.60
2019-02-25T23:46:57.901Z,83.90
2019-02-25T23:49:28.437Z,84.10
2019-02-25T23:52:00.308Z,84.10
2019-02-25T23:54:31.574Z,84.20
2019-02-25T23:57:04.762Z,84.50
2019-02-25T23:59:44.144Z,84.50
